Tawakoni's Hourly Summary for Monday, March 13, 2017
Hour Temp
(f)
RH
(%)
Solar Rad.
(MJ/m2)
Rainfall
(in)
Wind
(mph)
3/13/2017 12:00 AM 43 83 0 0 2.1
3/13/2017 1:00 AM 42 88 0 0 0.37
3/13/2017 2:00 AM 41 93 0 0 0.71
3/13/2017 3:00 AM 44 88 0 0 2.67
3/13/2017 4:00 AM 45 85 0 0 3.1
3/13/2017 5:00 AM 46 85 0 0.04 3.23
3/13/2017 6:00 AM 45 96 0 0.04 3.38
3/13/2017 7:00 AM 46 97 0 0.01 4.19
3/13/2017 8:00 AM 46 97 0 0 2.56
3/13/2017 9:00 AM 46 97 0.07 0 3
3/13/2017 10:00 AM 47 96 0.1 0.03 2.23
3/13/2017 11:00 AM 48 90 0.57 0.01 4.67
3/13/2017 12:00 PM 49 81 0.78 0 7.97
3/13/2017 1:00 PM 50 77 0.68 0 8.87
3/13/2017 2:00 PM 52 64 1.68 0 8.47
3/13/2017 3:00 PM 55 55 2.34 0 9.06
3/13/2017 4:00 PM 59 40 2.41 0 10.45
3/13/2017 5:00 PM 59 34 1.66 0 12.54
3/13/2017 6:00 PM 58 32 0.71 0 12.16
3/13/2017 7:00 PM 56 31 0.64 0 11.64
3/13/2017 8:00 PM 52 31 0.04 0 9.61
3/13/2017 9:00 PM 49 32 0 0 6.75
3/13/2017 10:00 PM 47 38 0 0 6.05
3/13/2017 11:00 PM 45 42 0 0 6.09
Data Summary 48 68 11.68 0.13 5.91